METAR-Meldungen aus der Umgebung

   
EDMO - Oberpfaffenhofen, Germany
Entfernung von der Station bis: SSO 18 km
Aktualisierung: 10-08-2022 01:20
Klar  
Klar  
   Wind: OSO 5.6 km/h
Wind: OSO 5.6 km/h
Temperatur: 13°C
Taupunkt: 9°C
Luftfeuchte: 77%
Luftdruck: 1025 hPa
Bewölkt: Clear
Sichtbarkeit: Mehr als 10 km
Bewölkung: Klar ft
EDMO 092320Z AUTO 11003KT 9999 // NCD 13/09 Q1025
ETSL - Lechfeld (ger-Af, Germany
Entfernung von der Station bis: WSW 23 km
Aktualisierung: 10-08-2022 01:20
  
  
   Wind: Osten 7.4 km/h
Wind: Osten 7.4 km/h
Temperatur: 13°C
Taupunkt: 9°C
Luftfeuchte: 77%
Luftdruck: 1025 hPa
Sichtbarkeit: Mehr als 10 km
ETSL 092320Z 08004KT 9999 13/09 Q1025 BLU+
EDMA - Augsburg/Mulhaus, Germany
Entfernung von der Station bis: NW 30 km
Aktualisierung: 10-08-2022 01:20
Klar  
Klar  
   Wind: ONO 13 km/h
Wind: ONO 13 km/h
Temperatur: 15°C
Taupunkt: 9°C
Luftfeuchte: 68%
Luftdruck: 1025 hPa
Bewölkt: Clear
Sichtbarkeit: Mehr als 10 km
Bewölkung: Klar ft
EDMA 092320Z AUTO 06007KT 9999 NCD 15/09 Q1025
ETHA - Altenstadt/Schon, Germany
Entfernung von der Station bis: SSW 49 km
Aktualisierung: 10-08-2022 01:20
  
  
   Wind: NO 13 km/h
Wind: NO 13 km/h
Temperatur: 14°C
Taupunkt: 8°C
Luftfeuchte: 67%
Luftdruck: 1025 hPa
Sichtbarkeit: Mehr als 10 km
ETHA 092320Z AUTO 05007KT 9999 // ////// 14/08 Q1025 ///
EDDM - Munich-Flughafen, Germany
Entfernung von der Station bis: ONO 50 km
Aktualisierung: 10-08-2022 01:20
Klar  
Klar  
   Wind: NNO 3.7 km/h
Wind: NNO 3.7 km/h
Temperatur: 14°C
Taupunkt: 10°C
Luftfeuchte: 77%
Luftdruck: 1025 hPa
Sichtbarkeit: Mehr als 10 km
Bewölkung: Klar ft
EDDM 092320Z AUTO 02002KT CAVOK 14/10 Q1025 NOSIG
 

Script entwickelt von  Saratoga-weather.org Angepasst für das Template von  Weerstation Leuven